Time;durP1;ratioP1;P1;durP2;ratioP2;P2;SDS_P1;SDS_P2;PMS_P1;PMS_P2;Temp;Humidity;BMP_temperature;BMP_pressure;BME280_temperature;BME280_humidity;BME280_pressure;Samples;Min_cycle;Max_cycle;Signal;HPM_P1;HPM_P2
2022/06/16 00:03:27;;;;;;;1.95;0.93;;;17.10;99.90;;;;;;20787917;28;20575;-40
2022/06/16 00:13:33;;;;;;;2.60;0.85;;;16.80;99.90;;;;;;20785432;28;20303;-40
2022/06/16 00:23:35;;;;;;;2.03;0.70;;;16.70;99.90;;;;;;20793314;28;20316;-40
2022/06/16 00:33:37;;;;;;;3.28;0.82;;;16.50;99.90;;;;;;20791118;28;20041;-40
2022/06/16 00:43:39;;;;;;;1.73;0.60;;;16.30;99.90;;;;;;20786913;28;20037;-40
2022/06/16 00:53:42;;;;;;;2.38;0.80;;;16.10;99.90;;;;;;20779246;28;20049;-40
2022/06/16 01:14:19;;;;;;;1.33;0.73;;;15.90;99.90;;;;;;20800663;28;20049;-40
2022/06/16 01:24:50;;;;;;;3.13;0.90;;;15.70;99.90;;;;;;20801936;28;20461;-40
2022/06/16 01:35:11;;;;;;;1.48;0.70;;;15.50;99.90;;;;;;20800658;28;20056;-40
2022/06/16 01:45:16;;;;;;;2.80;0.73;;;15.50;99.90;;;;;;20806056;28;20040;-40
2022/06/16 01:55:23;;;;;;;2.20;0.75;;;15.30;99.90;;;;;;20804349;28;21426;-40
2022/06/16 02:05:41;;;;;;;1.50;0.57;;;15.00;99.90;;;;;;20803022;28;20425;-40
2022/06/16 02:15:47;;;;;;;;;;;15.00;99.90;;;;;;20797840;28;20424;-40
2022/06/16 02:25:52;;;;;;;4.40;1.10;;;14.80;99.90;;;;;;20795167;28;19919;-40
2022/06/16 02:36:32;;;;;;;1.90;0.80;;;14.60;99.90;;;;;;20802348;28;20044;-40
2022/06/16 02:46:55;;;;;;;2.55;1.10;;;14.50;99.90;;;;;;20779789;28;20515;-41
2022/06/16 02:57:10;;;;;;;1.48;0.57;;;14.50;99.90;;;;;;20793742;28;20052;-42
2022/06/16 03:07:14;;;;;;;2.33;0.85;;;14.40;99.90;;;;;;20792235;28;20075;-42
2022/06/16 03:17:15;;;;;;;1.60;0.65;;;14.30;99.90;;;;;;20797377;28;20056;-40
2022/06/16 03:27:16;;;;;;;1.27;0.57;;;14.10;99.90;;;;;;20782194;28;20421;-41
2022/06/16 03:37:17;;;;;;;1.98;0.82;;;14.00;99.90;;;;;;20791424;28;20053;-40
2022/06/16 03:47:19;;;;;;;2.15;1.02;;;13.80;99.90;;;;;;20796810;28;20048;-40
2022/06/16 03:57:20;;;;;;;2.22;0.80;;;13.80;99.90;;;;;;20793041;28;20040;-40
2022/06/16 04:07:21;;;;;;;2.05;0.90;;;14.00;99.90;;;;;;20789635;28;20049;-40
2022/06/16 04:17:22;;;;;;;3.60;0.90;;;14.10;99.90;;;;;;20785266;28;20042;-40
2022/06/16 04:27:23;;;;;;;1.27;0.60;;;14.10;99.90;;;;;;20779819;28;20037;-40
2022/06/16 04:37:24;;;;;;;2.72;1.10;;;14.20;99.90;;;;;;20790924;28;20049;-40
2022/06/16 04:47:26;;;;;;;1.60;0.90;;;14.30;99.90;;;;;;20787383;28;20037;-40
2022/06/16 04:57:27;;;;;;;2.20;0.77;;;14.30;99.90;;;;;;20795034;28;20033;-40
2022/06/16 05:07:28;;;;;;;4.55;0.98;;;14.30;99.90;;;;;;20781689;28;20045;-40
2022/06/16 05:17:29;;;;;;;1.50;0.55;;;14.60;99.90;;;;;;20797791;28;20053;-41
2022/06/16 05:27:30;;;;;;;3.90;1.30;;;14.80;99.90;;;;;;20786020;28;20036;-40
2022/06/16 05:37:31;;;;;;;2.50;0.52;;;15.00;99.90;;;;;;20790913;28;20512;-40
2022/06/16 05:47:36;;;;;;;0.82;0.45;;;15.50;99.90;;;;;;20796069;28;20037;-40
2022/06/16 05:57:37;;;;;;;1.23;0.47;;;16.00;99.90;;;;;;20799802;28;20049;-40
2022/06/16 06:18:00;;;;;;;1.48;0.50;;;16.70;99.90;;;;;;20798620;28;20096;-41
2022/06/16 06:28:01;;;;;;;0.82;0.30;;;17.10;99.90;;;;;;20796589;28;20041;-40
2022/06/16 06:38:03;;;;;;;0.98;0.43;;;17.40;99.90;;;;;;20785046;28;20048;-40
2022/06/16 06:48:07;;;;;;;0.32;0.13;;;17.80;99.90;;;;;;20801919;28;20040;-40
2022/06/16 06:58:18;;;;;;;1.55;0.30;;;18.00;99.90;;;;;;20794891;28;20080;-41
2022/06/16 07:08:19;;;;;;;0.88;0.50;;;18.10;99.90;;;;;;20796194;28;22966;-41
2022/06/16 07:18:21;;;;;;;1.90;0.30;;;18.00;99.90;;;;;;20792911;28;20077;-40
2022/06/16 07:28:22;;;;;;;0.85;0.43;;;18.10;99.90;;;;;;20793333;28;20072;-39
2022/06/16 07:38:25;;;;;;;0.73;0.40;;;18.40;99.90;;;;;;20800414;28;20044;-38
2022/06/16 07:48:26;;;;;;;0.95;0.30;;;18.40;99.90;;;;;;20795644;28;20037;-38
2022/06/16 07:58:31;;;;;;;2.17;0.40;;;18.50;99.90;;;;;;20796575;28;20053;-38
2022/06/16 08:08:32;;;;;;;1.25;0.40;;;18.50;99.90;;;;;;20799327;28;20043;-38
2022/06/16 08:18:33;;;;;;;0.80;0.30;;;18.70;99.90;;;;;;20798566;28;20072;-38
2022/06/16 08:28:36;;;;;;;1.52;0.50;;;19.00;99.90;;;;;;20792490;28;20053;-39
2022/06/16 08:38:40;;;;;;;1.55;0.30;;;19.30;99.90;;;;;;20741827;28;20509;-38
2022/06/16 08:48:58;;;;;;;1.20;0.45;;;19.50;99.90;;;;;;20769138;28;20083;-38
2022/06/16 08:59:23;;;;;;;0.95;0.38;;;19.80;99.90;;;;;;20775089;28;20049;-38
2022/06/16 09:20:12;;;;;;;1.05;0.50;;;20.20;99.90;;;;;;20802060;28;20049;-39
2022/06/16 09:30:18;;;;;;;1.20;0.60;;;20.50;99.90;;;;;;20818912;28;20033;-38
2022/06/16 09:40:46;;;;;;;3.80;0.47;;;20.60;99.90;;;;;;20778916;28;20053;-41
2022/06/16 09:50:58;;;;;;;1.48;0.50;;;20.90;99.90;;;;;;20817364;28;20090;-41
2022/06/16 10:01:05;;;;;;;1.23;0.50;;;21.20;99.90;;;;;;20830800;28;22580;-41
2022/06/16 10:11:30;;;;;;;0.80;0.30;;;21.50;99.90;;;;;;20793134;28;20034;-41
2022/06/16 10:21:34;;;;;;;2.33;0.70;;;21.70;99.90;;;;;;20772284;28;20499;-41
2022/06/16 10:31:40;;;;;;;1.90;0.40;;;21.70;99.90;;;;;;20814633;28;20053;-41
2022/06/16 10:41:55;;;;;;;2.20;0.60;;;21.90;99.90;;;;;;20809583;28;20342;-41
2022/06/16 10:52:37;;;;;;;1.30;0.50;;;22.10;99.90;;;;;;20802926;28;20042;-41
2022/06/16 11:02:52;;;;;;;2.08;0.70;;;22.30;99.90;;;;;;20810674;28;20482;-41
2022/06/16 11:12:55;;;;;;;2.97;0.80;;;22.30;99.90;;;;;;20811861;28;20041;-41
2022/06/16 11:22:58;;;;;;;1.00;0.50;;;22.30;99.90;;;;;;20802884;28;20056;-41
2022/06/16 11:33:00;;;;;;;1.25;0.70;;;22.50;99.90;;;;;;20788881;28;20057;-41
2022/06/16 11:43:27;;;;;;;1.63;0.57;;;22.80;99.90;;;;;;20795571;28;20405;-41
2022/06/16 11:53:48;;;;;;;1.27;0.45;;;22.90;99.90;;;;;;20789407;28;20048;-41
2022/06/16 12:03:58;;;;;;;1.85;0.47;;;23.10;99.90;;;;;;20726546;28;20881;-41
2022/06/16 12:14:43;;;;;;;2.45;1.42;;;23.20;99.90;;;;;;20775136;28;20072;-41
2022/06/16 12:24:57;;;;;;;1.38;0.55;;;23.60;99.90;;;;;;20717366;28;20052;-41
2022/06/16 12:35:07;;;;;;;2.38;0.98;;;23.60;99.90;;;;;;20783072;28;20045;-41
2022/06/16 12:45:15;;;;;;;1.10;0.50;;;24.30;99.60;;;;;;20766767;28;20562;-41
2022/06/16 12:55:37;;;;;;;1.80;0.52;;;24.00;99.50;;;;;;20773997;28;20542;-41
2022/06/16 13:05:38;;;;;;;1.25;0.50;;;24.30;98.70;;;;;;20786991;28;20052;-41
2022/06/16 13:15:44;;;;;;;1.25;0.55;;;24.30;99.50;;;;;;20789779;28;20079;-41
2022/06/16 13:26:06;;;;;;;2.13;0.70;;;24.30;98.50;;;;;;20724938;28;20517;-41
2022/06/16 13:36:15;;;;;;;1.05;0.47;;;24.30;99.10;;;;;;20776518;28;20053;-41
2022/06/16 13:46:16;;;;;;;2.38;1.10;;;24.20;98.30;;;;;;20791001;28;21174;-40
2022/06/16 13:56:23;;;;;;;0.80;0.40;;;24.20;98.50;;;;;;20795467;28;20523;-41
2022/06/16 14:06:37;;;;;;;1.70;0.80;;;24.30;98.40;;;;;;20795825;28;20049;-40
2022/06/16 14:16:40;;;;;;;1.52;0.50;;;24.00;98.40;;;;;;20763558;28;20065;-41
2022/06/16 14:26:44;;;;;;;1.45;0.52;;;23.90;97.60;;;;;;20762520;28;20134;-41
2022/06/16 14:36:52;;;;;;;1.50;0.40;;;24.10;98.50;;;;;;20795799;28;20068;-40
2022/06/16 14:47:11;;;;;;;1.13;0.52;;;24.10;97.10;;;;;;20797040;28;20481;-40
2022/06/16 14:57:24;;;;;;;1.17;0.50;;;24.10;97.30;;;;;;20793398;28;20057;-40
2022/06/16 15:07:26;;;;;;;1.17;0.70;;;24.00;98.20;;;;;;20794606;28;20488;-40
2022/06/16 15:27:50;;;;;;;1.02;0.50;;;24.20;97.00;;;;;;20790407;28;20048;-40
2022/06/16 15:37:51;;;;;;;1.02;0.63;;;24.00;97.10;;;;;;20767564;28;20039;-40
2022/06/16 15:47:52;;;;;;;1.05;0.50;;;23.90;97.80;;;;;;20788636;28;20033;-40
2022/06/16 15:57:56;;;;;;;1.70;1.15;;;23.90;97.20;;;;;;20756325;28;20052;-40
2022/06/16 16:07:59;;;;;;;1.23;0.98;;;23.90;97.70;;;;;;20804646;28;20033;-40
2022/06/16 16:18:06;;;;;;;1.33;0.50;;;23.80;97.00;;;;;;20812203;28;20049;-40
2022/06/16 16:28:23;;;;;;;1.60;0.90;;;23.70;97.30;;;;;;20802266;28;20106;-40
2022/06/16 16:38:45;;;;;;;2.27;0.60;;;23.60;97.50;;;;;;20799248;28;20044;-40
2022/06/16 16:48:50;;;;;;;1.20;0.52;;;23.40;98.00;;;;;;20799946;28;20531;-40
2022/06/16 16:58:58;;;;;;;1.63;0.60;;;23.40;97.70;;;;;;20794130;28;20050;-40
2022/06/16 17:08:59;;;;;;;1.98;0.68;;;23.30;97.50;;;;;;20778706;28;20417;-40
2022/06/16 17:19:00;;;;;;;1.20;0.60;;;23.30;97.70;;;;;;20796158;28;20177;-40
2022/06/16 17:29:01;;;;;;;1.77;0.88;;;23.30;98.20;;;;;;20761067;28;20044;-40
2022/06/16 17:39:03;;;;;;;1.25;0.60;;;23.30;98.00;;;;;;20780454;28;20060;-40
2022/06/16 17:49:04;;;;;;;2.13;1.00;;;23.30;98.30;;;;;;20809704;28;20044;-40
2022/06/16 18:09:32;;;;;;;2.53;0.57;;;23.10;98.50;;;;;;20812894;28;21590;-40
2022/06/16 18:19:33;;;;;;;1.45;0.57;;;23.00;98.50;;;;;;20790898;28;20049;-40
2022/06/16 18:29:36;;;;;;;1.80;0.88;;;22.90;98.80;;;;;;20808701;28;20507;-40
2022/06/16 18:39:37;;;;;;;2.88;0.68;;;22.90;98.80;;;;;;20809849;28;20385;-40
2022/06/16 18:49:42;;;;;;;1.30;0.68;;;22.80;99.60;;;;;;20812973;28;20041;-40
2022/06/16 18:59:44;;;;;;;0.70;0.50;;;22.70;99.70;;;;;;20813327;28;20052;-40
2022/06/16 19:09:45;;;;;;;1.50;0.50;;;22.50;99.90;;;;;;20807356;28;20048;-40
2022/06/16 19:19:48;;;;;;;1.23;0.80;;;22.40;99.90;;;;;;20810058;28;20046;-40
2022/06/16 19:29:54;;;;;;;2.10;0.75;;;22.30;99.90;;;;;;20809431;28;20177;-40
2022/06/16 19:39:55;;;;;;;2.03;0.70;;;22.10;99.90;;;;;;20809859;28;20053;-40
2022/06/16 20:00:23;;;;;;;5.15;1.23;;;21.80;99.90;;;;;;20808507;28;20243;-40
2022/06/16 20:10:25;;;;;;;1.00;0.60;;;21.50;99.90;;;;;;20803433;28;20109;-39
2022/06/16 20:20:27;;;;;;;1.90;1.27;;;21.20;99.90;;;;;;20794784;28;20045;-40
2022/06/16 20:30:28;;;;;;;2.08;1.20;;;20.80;99.90;;;;;;20796393;28;20034;-40
2022/06/16 20:40:31;;;;;;;1.38;0.70;;;20.50;99.90;;;;;;20801576;28;20083;-40
2022/06/16 20:50:36;;;;;;;2.40;1.08;;;20.10;99.90;;;;;;20801838;28;20619;-40
2022/06/16 21:12:19;;;;;;;2.20;1.00;;;19.90;99.90;;;;;;20804269;28;20037;-40
2022/06/16 21:21:18;;;;;;;2.35;1.35;;;19.60;99.90;;;;;;20807933;28;20048;-40
2022/06/16 21:31:20;;;;;;;1.80;1.00;;;19.30;99.90;;;;;;20812987;28;20066;-38
2022/06/16 21:41:22;;;;;;;1.50;0.85;;;19.00;99.90;;;;;;20757090;28;20056;-38
2022/06/16 21:51:26;;;;;;;1.80;0.70;;;18.80;99.90;;;;;;20761712;28;20049;-38
2022/06/16 22:01:31;;;;;;;1.88;0.90;;;18.70;99.90;;;;;;20801249;28;20041;-37
2022/06/16 22:21:52;;;;;;;2.25;0.88;;;18.40;99.90;;;;;;20796789;28;20278;-38
2022/06/16 22:31:53;;;;;;;1.95;1.00;;;18.30;99.90;;;;;;20795169;28;20036;-38
2022/06/16 22:41:56;;;;;;;3.15;1.20;;;18.20;99.90;;;;;;20771785;28;20492;-38
2022/06/16 22:51:57;;;;;;;3.50;1.60;;;18.00;99.90;;;;;;20751525;28;20269;-38
2022/06/16 23:01:59;;;;;;;2.28;1.20;;;18.10;99.90;;;;;;20786698;28;20049;-38
2022/06/16 23:12:01;;;;;;;2.40;1.20;;;17.90;99.90;;;;;;20798603;28;20539;-38
2022/06/16 23:22:03;;;;;;;2.63;1.17;;;18.00;99.90;;;;;;20784849;28;20045;-38
2022/06/16 23:32:04;;;;;;;2.28;1.00;;;18.10;99.90;;;;;;20781108;28;20961;-38
2022/06/16 23:42:06;;;;;;;3.67;1.45;;;18.20;99.90;;;;;;20796302;28;20049;-38
2022/06/16 23:52:19;;;;;;;2.22;0.90;;;18.20;99.90;;;;;;20797157;28;20048;-38
